LFRQ/UIP METAR and TAF weather

Enter ICAO airport designator
Station Type Date Time Source
LFRQ METAR 2020/01/18 15:30 UTC NOAA

LFRQ 181530Z AUTO 06009KT CAVOK 08/04 Q1026 NOSIG


Station Type Date Time Source
LFRQ Decoded METAR 2020/01/18 15:30 UTC NOAA

Quimper, France (LFRQ) 47-58N 004-10W 94M
Jan 18, 2020 - 10:30 AM EST / 2020.01.18 1530 UTC
Wind: from the ENE (060 degrees) at 10 MPH (9 KT):0
Visibility: greater than 7 mile(s):0
Temperature: 46 F (8 C)
Dew Point: 39 F (4 C)
Relative Humidity: 75%
Pressure (altimeter): 30.30 in. Hg (1026 hPa)
ob: LFRQ 181530Z AUTO 06009KT CAVOK 08/04 Q1026 NOSIG
cycle: 15

Station Type Date Time Source
LFRQ TAF 2020/01/18 12:21 UTC NOAA

TAF LFRQ 181100Z 1812/1912 05010KT CAVOK PROB30
TEMPO 1820/1822 BKN006 PROB30
TEMPO 1903/1906 04005KT MIFG

Example: see airport list